sensor_id;sensor_type;location;lat;lon;timestamp;temperature;humidity
45685;DHT22;46836;48.388;16.210;2023-12-29T00:00:59;5.20;99.90
45685;DHT22;46836;48.388;16.210;2023-12-29T00:03:26;5.20;99.90
45685;DHT22;46836;48.388;16.210;2023-12-29T00:05:53;5.20;99.90
45685;DHT22;46836;48.388;16.210;2023-12-29T00:08:20;5.20;99.90
45685;DHT22;46836;48.388;16.210;2023-12-29T00:10:47;5.20;99.90
45685;DHT22;46836;48.388;16.210;2023-12-29T00:13:15;5.30;99.90
45685;DHT22;46836;48.388;16.210;2023-12-29T00:15:42;5.30;99.90
45685;DHT22;46836;48.388;16.210;2023-12-29T00:18:09;5.30;99.90
45685;DHT22;46836;48.388;16.210;2023-12-29T00:20:36;5.30;99.90
45685;DHT22;46836;48.388;16.210;2023-12-29T00:23:07;5.30;99.90
45685;DHT22;46836;48.388;16.210;2023-12-29T00:25:38;5.30;99.90
45685;DHT22;46836;48.388;16.210;2023-12-29T00:28:05;5.30;99.90
45685;DHT22;46836;48.388;16.210;2023-12-29T00:30:32;5.30;99.90
45685;DHT22;46836;48.388;16.210;2023-12-29T00:33:19;5.30;99.90
45685;DHT22;46836;48.388;16.210;2023-12-29T00:35:47;5.30;99.90
45685;DHT22;46836;48.388;16.210;2023-12-29T00:38:14;5.40;99.90
45685;DHT22;46836;48.388;16.210;2023-12-29T00:40:41;5.40;99.90
45685;DHT22;46836;48.388;16.210;2023-12-29T00:43:08;5.40;99.90
45685;DHT22;46836;48.388;16.210;2023-12-29T00:45:35;5.40;99.90
45685;DHT22;46836;48.388;16.210;2023-12-29T00:48:03;5.40;99.90
45685;DHT22;46836;48.388;16.210;2023-12-29T00:50:31;5.40;99.90
45685;DHT22;46836;48.388;16.210;2023-12-29T00:52:58;5.30;99.90
45685;DHT22;46836;48.388;16.210;2023-12-29T00:55:25;5.40;99.90
45685;DHT22;46836;48.388;16.210;2023-12-29T00:57:52;5.40;99.90
45685;DHT22;46836;48.388;16.210;2023-12-29T01:00:19;5.40;99.90
45685;DHT22;46836;48.388;16.210;2023-12-29T01:02:46;5.40;99.90
45685;DHT22;46836;48.388;16.210;2023-12-29T01:05:17;5.30;99.90
45685;DHT22;46836;48.388;16.210;2023-12-29T01:07:44;5.30;99.90
45685;DHT22;46836;48.388;16.210;2023-12-29T01:10:11;5.30;99.90
45685;DHT22;46836;48.388;16.210;2023-12-29T01:12:39;5.30;99.90
45685;DHT22;46836;48.388;16.210;2023-12-29T01:15:06;5.30;99.90
45685;DHT22;46836;48.388;16.210;2023-12-29T01:17:33;5.30;99.90
45685;DHT22;46836;48.388;16.210;2023-12-29T01:20:00;5.30;99.90
45685;DHT22;46836;48.388;16.210;2023-12-29T01:22:30;5.30;99.90
45685;DHT22;46836;48.388;16.210;2023-12-29T01:25:00;5.20;99.90
45685;DHT22;46836;48.388;16.210;2023-12-29T01:27:28;5.20;99.90
45685;DHT22;46836;48.388;16.210;2023-12-29T01:29:56;5.30;99.90
45685;DHT22;46836;48.388;16.210;2023-12-29T01:32:23;5.20;99.90
45685;DHT22;46836;48.388;16.210;2023-12-29T01:34:52;5.20;99.90
45685;DHT22;46836;48.388;16.210;2023-12-29T01:37:20;5.20;99.90
45685;DHT22;46836;48.388;16.210;2023-12-29T01:39:47;5.20;99.90
45685;DHT22;46836;48.388;16.210;2023-12-29T01:42:14;5.20;99.90
45685;DHT22;46836;48.388;16.210;2023-12-29T01:44:41;5.20;99.90
45685;DHT22;46836;48.388;16.210;2023-12-29T01:47:14;5.20;99.90
45685;DHT22;46836;48.388;16.210;2023-12-29T01:49:45;5.20;99.90
45685;DHT22;46836;48.388;16.210;2023-12-29T01:52:13;5.20;99.90
45685;DHT22;46836;48.388;16.210;2023-12-29T01:54:41;5.20;99.90
45685;DHT22;46836;48.388;16.210;2023-12-29T01:57:11;5.20;99.90
45685;DHT22;46836;48.388;16.210;2023-12-29T01:59:39;5.20;99.90
45685;DHT22;46836;48.388;16.210;2023-12-29T02:02:07;5.20;99.90
45685;DHT22;46836;48.388;16.210;2023-12-29T02:04:35;5.20;99.90
45685;DHT22;46836;48.388;16.210;2023-12-29T02:07:04;5.30;99.90
45685;DHT22;46836;48.388;16.210;2023-12-29T02:09:31;5.30;99.90
45685;DHT22;46836;48.388;16.210;2023-12-29T02:12:01;5.20;99.90
45685;DHT22;46836;48.388;16.210;2023-12-29T02:14:29;5.20;99.90
45685;DHT22;46836;48.388;16.210;2023-12-29T02:20:08;5.20;99.90
45685;DHT22;46836;48.388;16.210;2023-12-29T02:22:36;5.20;99.90
45685;DHT22;46836;48.388;16.210;2023-12-29T02:25:05;5.20;99.90
45685;DHT22;46836;48.388;16.210;2023-12-29T02:27:55;5.20;99.90
45685;DHT22;46836;48.388;16.210;2023-12-29T02:30:38;5.20;99.90
45685;DHT22;46836;48.388;16.210;2023-12-29T02:33:10;5.20;99.90
45685;DHT22;46836;48.388;16.210;2023-12-29T02:35:42;5.20;99.90
45685;DHT22;46836;48.388;16.210;2023-12-29T02:38:11;5.20;99.90
45685;DHT22;46836;48.388;16.210;2023-12-29T02:40:38;5.20;99.90
45685;DHT22;46836;48.388;16.210;2023-12-29T02:43:08;5.20;99.90
45685;DHT22;46836;48.388;16.210;2023-12-29T02:45:35;5.20;99.90
45685;DHT22;46836;48.388;16.210;2023-12-29T02:48:02;5.20;99.90
45685;DHT22;46836;48.388;16.210;2023-12-29T02:50:30;5.20;99.90
45685;DHT22;46836;48.388;16.210;2023-12-29T02:52:57;5.30;99.90
45685;DHT22;46836;48.388;16.210;2023-12-29T02:55:24;5.30;99.90
45685;DHT22;46836;48.388;16.210;2023-12-29T02:57:51;5.30;99.90
45685;DHT22;46836;48.388;16.210;2023-12-29T03:00:18;5.30;99.90
45685;DHT22;46836;48.388;16.210;2023-12-29T03:02:45;5.30;99.90
45685;DHT22;46836;48.388;16.210;2023-12-29T03:05:14;5.30;99.90
45685;DHT22;46836;48.388;16.210;2023-12-29T03:07:41;5.30;99.90
45685;DHT22;46836;48.388;16.210;2023-12-29T03:10:09;5.30;99.90
45685;DHT22;46836;48.388;16.210;2023-12-29T03:12:36;5.40;99.90
45685;DHT22;46836;48.388;16.210;2023-12-29T03:15:03;5.40;99.90
45685;DHT22;46836;48.388;16.210;2023-12-29T03:17:31;5.40;99.90
45685;DHT22;46836;48.388;16.210;2023-12-29T03:19:58;5.40;99.90
45685;DHT22;46836;48.388;16.210;2023-12-29T03:22:26;5.30;99.90
45685;DHT22;46836;48.388;16.210;2023-12-29T03:24:53;5.40;99.90
45685;DHT22;46836;48.388;16.210;2023-12-29T03:27:20;5.30;99.90
45685;DHT22;46836;48.388;16.210;2023-12-29T03:29:47;5.30;99.90
45685;DHT22;46836;48.388;16.210;2023-12-29T03:32:14;5.30;99.90
45685;DHT22;46836;48.388;16.210;2023-12-29T03:34:42;5.30;99.90
45685;DHT22;46836;48.388;16.210;2023-12-29T03:37:10;5.30;99.90
45685;DHT22;46836;48.388;16.210;2023-12-29T03:39:37;5.30;99.90
45685;DHT22;46836;48.388;16.210;2023-12-29T03:42:04;5.30;99.90
45685;DHT22;46836;48.388;16.210;2023-12-29T03:44:31;5.30;99.90
45685;DHT22;46836;48.388;16.210;2023-12-29T03:46:59;5.30;99.90
45685;DHT22;46836;48.388;16.210;2023-12-29T03:49:26;5.30;99.90
45685;DHT22;46836;48.388;16.210;2023-12-29T03:51:53;5.30;99.90
45685;DHT22;46836;48.388;16.210;2023-12-29T03:54:20;5.30;99.90
45685;DHT22;46836;48.388;16.210;2023-12-29T03:56:48;5.30;99.90
45685;DHT22;46836;48.388;16.210;2023-12-29T03:59:15;5.30;99.90
45685;DHT22;46836;48.388;16.210;2023-12-29T04:01:42;5.30;99.90
45685;DHT22;46836;48.388;16.210;2023-12-29T04:04:10;5.30;99.90
45685;DHT22;46836;48.388;16.210;2023-12-29T04:06:37;5.30;99.90
45685;DHT22;46836;48.388;16.210;2023-12-29T04:09:04;5.30;99.90
45685;DHT22;46836;48.388;16.210;2023-12-29T04:11:31;5.20;99.90
45685;DHT22;46836;48.388;16.210;2023-12-29T04:13:58;5.20;99.90
45685;DHT22;46836;48.388;16.210;2023-12-29T04:16:25;5.20;99.90
45685;DHT22;46836;48.388;16.210;2023-12-29T04:18:52;5.20;99.90
45685;DHT22;46836;48.388;16.210;2023-12-29T04:21:20;5.20;99.90
45685;DHT22;46836;48.388;16.210;2023-12-29T04:23:47;5.20;99.90
45685;DHT22;46836;48.388;16.210;2023-12-29T04:26:14;5.10;99.90
45685;DHT22;46836;48.388;16.210;2023-12-29T04:28:42;5.10;99.90
45685;DHT22;46836;48.388;16.210;2023-12-29T04:31:09;5.10;99.90
45685;DHT22;46836;48.388;16.210;2023-12-29T04:33:36;5.00;99.90
45685;DHT22;46836;48.388;16.210;2023-12-29T04:36:03;5.00;99.90
45685;DHT22;46836;48.388;16.210;2023-12-29T04:38:31;5.00;99.90
45685;DHT22;46836;48.388;16.210;2023-12-29T04:40:58;5.00;99.90
45685;DHT22;46836;48.388;16.210;2023-12-29T04:43:25;4.90;99.90
45685;DHT22;46836;48.388;16.210;2023-12-29T04:45:52;4.90;99.90
45685;DHT22;46836;48.388;16.210;2023-12-29T04:48:19;4.90;99.90
45685;DHT22;46836;48.388;16.210;2023-12-29T04:50:46;4.90;99.90
45685;DHT22;46836;48.388;16.210;2023-12-29T04:53:13;4.90;99.90
45685;DHT22;46836;48.388;16.210;2023-12-29T04:55:40;4.90;99.90
45685;DHT22;46836;48.388;16.210;2023-12-29T04:58:07;4.80;99.90
45685;DHT22;46836;48.388;16.210;2023-12-29T05:00:34;4.80;99.90
45685;DHT22;46836;48.388;16.210;2023-12-29T05:03:02;4.70;99.90
45685;DHT22;46836;48.388;16.210;2023-12-29T05:05:29;4.70;99.90
45685;DHT22;46836;48.388;16.210;2023-12-29T05:07:56;4.70;99.90
45685;DHT22;46836;48.388;16.210;2023-12-29T05:10:24;4.70;99.90
45685;DHT22;46836;48.388;16.210;2023-12-29T05:12:51;4.70;99.90
45685;DHT22;46836;48.388;16.210;2023-12-29T05:15:18;4.70;99.90
45685;DHT22;46836;48.388;16.210;2023-12-29T05:17:45;4.60;99.90
45685;DHT22;46836;48.388;16.210;2023-12-29T05:20:12;4.60;99.90
45685;DHT22;46836;48.388;16.210;2023-12-29T05:22:39;4.50;99.90
45685;DHT22;46836;48.388;16.210;2023-12-29T05:25:07;4.50;99.90
45685;DHT22;46836;48.388;16.210;2023-12-29T05:27:34;4.50;99.90
45685;DHT22;46836;48.388;16.210;2023-12-29T05:30:02;4.50;99.90
45685;DHT22;46836;48.388;16.210;2023-12-29T05:32:29;4.50;99.90
45685;DHT22;46836;48.388;16.210;2023-12-29T05:34:57;4.50;99.90
45685;DHT22;46836;48.388;16.210;2023-12-29T05:37:24;4.60;99.90
45685;DHT22;46836;48.388;16.210;2023-12-29T05:39:51;4.50;99.90
45685;DHT22;46836;48.388;16.210;2023-12-29T05:42:18;4.50;99.90
45685;DHT22;46836;48.388;16.210;2023-12-29T05:44:45;4.40;99.90
45685;DHT22;46836;48.388;16.210;2023-12-29T05:47:12;4.40;99.90
45685;DHT22;46836;48.388;16.210;2023-12-29T05:49:40;4.30;99.90
45685;DHT22;46836;48.388;16.210;2023-12-29T05:52:07;4.30;99.90
45685;DHT22;46836;48.388;16.210;2023-12-29T05:54:34;4.20;99.90
45685;DHT22;46836;48.388;16.210;2023-12-29T05:57:02;4.20;99.90
45685;DHT22;46836;48.388;16.210;2023-12-29T05:59:29;4.20;99.90
45685;DHT22;46836;48.388;16.210;2023-12-29T06:01:56;4.10;99.90
45685;DHT22;46836;48.388;16.210;2023-12-29T06:04:24;4.10;99.90
45685;DHT22;46836;48.388;16.210;2023-12-29T06:06:51;4.10;99.90
45685;DHT22;46836;48.388;16.210;2023-12-29T06:09:18;4.00;99.90
45685;DHT22;46836;48.388;16.210;2023-12-29T06:11:45;4.00;99.90
45685;DHT22;46836;48.388;16.210;2023-12-29T06:14:12;4.00;99.90
45685;DHT22;46836;48.388;16.210;2023-12-29T06:16:39;4.10;99.90
45685;DHT22;46836;48.388;16.210;2023-12-29T06:19:08;4.00;99.90
45685;DHT22;46836;48.388;16.210;2023-12-29T06:21:42;4.00;99.90
45685;DHT22;46836;48.388;16.210;2023-12-29T06:24:10;4.10;99.90
45685;DHT22;46836;48.388;16.210;2023-12-29T06:26:42;4.00;99.90
45685;DHT22;46836;48.388;16.210;2023-12-29T06:29:10;4.00;99.90
45685;DHT22;46836;48.388;16.210;2023-12-29T06:31:41;4.00;99.90
45685;DHT22;46836;48.388;16.210;2023-12-29T06:34:09;4.00;99.90
45685;DHT22;46836;48.388;16.210;2023-12-29T06:36:37;4.00;99.90
45685;DHT22;46836;48.388;16.210;2023-12-29T06:39:04;3.90;99.90
45685;DHT22;46836;48.388;16.210;2023-12-29T06:41:32;3.90;99.90
45685;DHT22;46836;48.388;16.210;2023-12-29T06:43:59;3.90;99.90
45685;DHT22;46836;48.388;16.210;2023-12-29T06:46:26;4.00;99.90
45685;DHT22;46836;48.388;16.210;2023-12-29T06:48:53;4.00;99.90
45685;DHT22;46836;48.388;16.210;2023-12-29T06:51:21;4.00;99.90
45685;DHT22;46836;48.388;16.210;2023-12-29T06:53:50;4.00;99.90
45685;DHT22;46836;48.388;16.210;2023-12-29T06:56:18;4.00;99.90
45685;DHT22;46836;48.388;16.210;2023-12-29T06:58:45;4.10;99.90
45685;DHT22;46836;48.388;16.210;2023-12-29T07:01:13;4.20;99.90
45685;DHT22;46836;48.388;16.210;2023-12-29T07:03:40;4.30;99.90
45685;DHT22;46836;48.388;16.210;2023-12-29T07:06:09;4.40;99.90
45685;DHT22;46836;48.388;16.210;2023-12-29T07:08:37;4.40;99.90
45685;DHT22;46836;48.388;16.210;2023-12-29T07:11:07;4.40;99.90
45685;DHT22;46836;48.388;16.210;2023-12-29T07:13:36;4.40;99.90
45685;DHT22;46836;48.388;16.210;2023-12-29T07:16:04;4.50;99.90
45685;DHT22;46836;48.388;16.210;2023-12-29T07:18:31;4.50;99.90
45685;DHT22;46836;48.388;16.210;2023-12-29T07:20:59;4.60;99.90
45685;DHT22;46836;48.388;16.210;2023-12-29T07:23:26;4.70;99.90
45685;DHT22;46836;48.388;16.210;2023-12-29T07:25:53;4.70;99.90
45685;DHT22;46836;48.388;16.210;2023-12-29T07:28:20;4.80;99.90
45685;DHT22;46836;48.388;16.210;2023-12-29T07:30:47;4.80;99.90
45685;DHT22;46836;48.388;16.210;2023-12-29T07:33:14;4.80;99.90
45685;DHT22;46836;48.388;16.210;2023-12-29T07:35:42;4.90;99.90
45685;DHT22;46836;48.388;16.210;2023-12-29T07:38:09;5.00;99.90
45685;DHT22;46836;48.388;16.210;2023-12-29T07:40:36;5.10;99.90
45685;DHT22;46836;48.388;16.210;2023-12-29T07:43:04;5.20;99.90
45685;DHT22;46836;48.388;16.210;2023-12-29T07:45:31;5.30;99.90
45685;DHT22;46836;48.388;16.210;2023-12-29T07:47:58;5.30;99.90
45685;DHT22;46836;48.388;16.210;2023-12-29T07:50:26;5.40;99.90
45685;DHT22;46836;48.388;16.210;2023-12-29T07:52:53;5.40;99.90
45685;DHT22;46836;48.388;16.210;2023-12-29T07:55:20;5.40;99.90
45685;DHT22;46836;48.388;16.210;2023-12-29T07:57:47;5.40;99.90
45685;DHT22;46836;48.388;16.210;2023-12-29T08:00:15;5.50;99.90
45685;DHT22;46836;48.388;16.210;2023-12-29T08:02:42;5.50;99.90
45685;DHT22;46836;48.388;16.210;2023-12-29T08:05:09;5.50;99.90
45685;DHT22;46836;48.388;16.210;2023-12-29T08:07:37;5.60;99.90
45685;DHT22;46836;48.388;16.210;2023-12-29T08:10:06;5.60;99.90
45685;DHT22;46836;48.388;16.210;2023-12-29T08:12:34;5.70;99.90
45685;DHT22;46836;48.388;16.210;2023-12-29T08:15:03;5.70;99.90
45685;DHT22;46836;48.388;16.210;2023-12-29T08:17:30;5.80;99.90
45685;DHT22;46836;48.388;16.210;2023-12-29T08:19:58;5.90;99.90
45685;DHT22;46836;48.388;16.210;2023-12-29T08:22:29;6.00;99.90
45685;DHT22;46836;48.388;16.210;2023-12-29T08:24:56;6.10;99.90
45685;DHT22;46836;48.388;16.210;2023-12-29T08:27:24;6.20;99.90
45685;DHT22;46836;48.388;16.210;2023-12-29T08:29:55;6.20;99.90
45685;DHT22;46836;48.388;16.210;2023-12-29T08:32:22;6.20;99.90
45685;DHT22;46836;48.388;16.210;2023-12-29T08:34:49;6.30;99.90
45685;DHT22;46836;48.388;16.210;2023-12-29T08:37:17;6.40;99.90
45685;DHT22;46836;48.388;16.210;2023-12-29T08:39:47;6.50;99.90
45685;DHT22;46836;48.388;16.210;2023-12-29T08:42:16;6.60;99.90
45685;DHT22;46836;48.388;16.210;2023-12-29T08:44:43;6.70;99.90
45685;DHT22;46836;48.388;16.210;2023-12-29T08:47:10;6.80;99.90
45685;DHT22;46836;48.388;16.210;2023-12-29T08:49:38;6.90;99.90
45685;DHT22;46836;48.388;16.210;2023-12-29T08:52:05;7.00;99.90
45685;DHT22;46836;48.388;16.210;2023-12-29T08:54:33;7.00;99.90
45685;DHT22;46836;48.388;16.210;2023-12-29T08:57:00;7.10;99.90
45685;DHT22;46836;48.388;16.210;2023-12-29T08:59:27;7.20;99.90
45685;DHT22;46836;48.388;16.210;2023-12-29T09:01:55;7.40;99.90
45685;DHT22;46836;48.388;16.210;2023-12-29T09:04:22;7.40;99.90
45685;DHT22;46836;48.388;16.210;2023-12-29T09:06:49;7.50;99.90
45685;DHT22;46836;48.388;16.210;2023-12-29T09:09:17;7.60;99.90
45685;DHT22;46836;48.388;16.210;2023-12-29T09:11:44;7.60;99.90
45685;DHT22;46836;48.388;16.210;2023-12-29T09:14:11;7.70;99.90
45685;DHT22;46836;48.388;16.210;2023-12-29T09:16:39;7.80;99.90
45685;DHT22;46836;48.388;16.210;2023-12-29T09:19:10;8.00;99.90
45685;DHT22;46836;48.388;16.210;2023-12-29T09:21:40;8.20;99.90
45685;DHT22;46836;48.388;16.210;2023-12-29T09:24:07;8.30;99.90
45685;DHT22;46836;48.388;16.210;2023-12-29T09:26:35;8.40;99.90
45685;DHT22;46836;48.388;16.210;2023-12-29T09:29:02;8.40;99.90
45685;DHT22;46836;48.388;16.210;2023-12-29T09:31:29;8.40;99.90
45685;DHT22;46836;48.388;16.210;2023-12-29T09:33:56;8.50;99.90
45685;DHT22;46836;48.388;16.210;2023-12-29T09:36:24;8.60;99.90
45685;DHT22;46836;48.388;16.210;2023-12-29T09:38:51;8.70;99.90
45685;DHT22;46836;48.388;16.210;2023-12-29T09:41:20;8.80;99.90
45685;DHT22;46836;48.388;16.210;2023-12-29T09:43:51;8.80;99.90
45685;DHT22;46836;48.388;16.210;2023-12-29T09:46:19;9.00;99.90
45685;DHT22;46836;48.388;16.210;2023-12-29T09:48:52;9.10;99.90
45685;DHT22;46836;48.388;16.210;2023-12-29T09:51:24;9.30;99.90
45685;DHT22;46836;48.388;16.210;2023-12-29T09:53:52;9.40;99.90
45685;DHT22;46836;48.388;16.210;2023-12-29T09:56:19;9.50;99.90
45685;DHT22;46836;48.388;16.210;2023-12-29T09:58:51;9.60;99.90
45685;DHT22;46836;48.388;16.210;2023-12-29T10:01:21;9.70;99.90
45685;DHT22;46836;48.388;16.210;2023-12-29T10:03:49;9.80;99.90
45685;DHT22;46836;48.388;16.210;2023-12-29T10:06:20;9.90;99.90
45685;DHT22;46836;48.388;16.210;2023-12-29T10:08:50;10.00;99.90
45685;DHT22;46836;48.388;16.210;2023-12-29T10:11:24;10.20;99.90
45685;DHT22;46836;48.388;16.210;2023-12-29T10:13:54;10.40;99.90
45685;DHT22;46836;48.388;16.210;2023-12-29T10:16:31;10.50;99.90
45685;DHT22;46836;48.388;16.210;2023-12-29T10:22:08;10.80;99.90
45685;DHT22;46836;48.388;16.210;2023-12-29T10:24:38;10.90;99.90
45685;DHT22;46836;48.388;16.210;2023-12-29T10:27:05;11.10;99.90
45685;DHT22;46836;48.388;16.210;2023-12-29T10:29:32;11.40;99.90
45685;DHT22;46836;48.388;16.210;2023-12-29T10:32:00;11.60;99.90
45685;DHT22;46836;48.388;16.210;2023-12-29T10:34:27;11.90;99.90
45685;DHT22;46836;48.388;16.210;2023-12-29T10:36:59;12.10;99.90
45685;DHT22;46836;48.388;16.210;2023-12-29T10:39:28;12.40;99.90
45685;DHT22;46836;48.388;16.210;2023-12-29T10:42:06;12.60;99.90
45685;DHT22;46836;48.388;16.210;2023-12-29T10:44:35;12.80;99.90
45685;DHT22;46836;48.388;16.210;2023-12-29T10:47:12;13.00;99.90
45685;DHT22;46836;48.388;16.210;2023-12-29T10:49:40;13.10;99.90
45685;DHT22;46836;48.388;16.210;2023-12-29T10:52:15;13.30;99.90
45685;DHT22;46836;48.388;16.210;2023-12-29T10:54:43;13.40;99.90
45685;DHT22;46836;48.388;16.210;2023-12-29T10:57:12;13.60;99.90
45685;DHT22;46836;48.388;16.210;2023-12-29T10:59:40;13.70;99.90
45685;DHT22;46836;48.388;16.210;2023-12-29T11:02:07;13.80;99.90
45685;DHT22;46836;48.388;16.210;2023-12-29T11:04:42;13.90;99.90
45685;DHT22;46836;48.388;16.210;2023-12-29T11:07:12;14.00;99.90
45685;DHT22;46836;48.388;16.210;2023-12-29T11:09:40;14.10;99.90
45685;DHT22;46836;48.388;16.210;2023-12-29T11:12:07;14.20;99.90
45685;DHT22;46836;48.388;16.210;2023-12-29T11:14:37;14.30;99.90
45685;DHT22;46836;48.388;16.210;2023-12-29T11:17:17;14.30;99.90
45685;DHT22;46836;48.388;16.210;2023-12-29T11:19:50;14.40;99.90
45685;DHT22;46836;48.388;16.210;2023-12-29T11:22:21;14.40;99.90
45685;DHT22;46836;48.388;16.210;2023-12-29T11:24:52;14.60;99.90
45685;DHT22;46836;48.388;16.210;2023-12-29T11:27:23;14.60;99.90
45685;DHT22;46836;48.388;16.210;2023-12-29T11:30:03;14.60;99.90
45685;DHT22;46836;48.388;16.210;2023-12-29T11:35:55;14.70;99.90
45685;DHT22;46836;48.388;16.210;2023-12-29T11:38:53;14.80;99.90
45685;DHT22;46836;48.388;16.210;2023-12-29T11:41:56;14.80;99.90
45685;DHT22;46836;48.388;16.210;2023-12-29T11:44:28;14.90;99.90
45685;DHT22;46836;48.388;16.210;2023-12-29T11:46:58;14.80;99.90
45685;DHT22;46836;48.388;16.210;2023-12-29T11:50:05;14.90;99.90
45685;DHT22;46836;48.388;16.210;2023-12-29T11:52:42;14.90;99.90
45685;DHT22;46836;48.388;16.210;2023-12-29T11:55:15;14.90;99.90
45685;DHT22;46836;48.388;16.210;2023-12-29T11:57:50;15.00;99.90
45685;DHT22;46836;48.388;16.210;2023-12-29T12:00:46;15.00;99.90
45685;DHT22;46836;48.388;16.210;2023-12-29T12:03:31;15.10;99.90
45685;DHT22;46836;48.388;16.210;2023-12-29T12:06:05;15.10;99.90
45685;DHT22;46836;48.388;16.210;2023-12-29T12:08:37;15.20;99.90
45685;DHT22;46836;48.388;16.210;2023-12-29T12:14:03;15.20;99.90
45685;DHT22;46836;48.388;16.210;2023-12-29T12:16:54;15.20;99.90
45685;DHT22;46836;48.388;16.210;2023-12-29T12:19:25;15.00;99.90
45685;DHT22;46836;48.388;16.210;2023-12-29T12:21:54;15.00;99.90
45685;DHT22;46836;48.388;16.210;2023-12-29T12:24:24;14.90;99.90
45685;DHT22;46836;48.388;16.210;2023-12-29T12:26:54;14.80;99.90
45685;DHT22;46836;48.388;16.210;2023-12-29T12:29:22;14.70;99.90
45685;DHT22;46836;48.388;16.210;2023-12-29T12:31:56;14.60;99.90
45685;DHT22;46836;48.388;16.210;2023-12-29T12:34:24;14.60;99.90
45685;DHT22;46836;48.388;16.210;2023-12-29T12:36:53;14.50;99.90
45685;DHT22;46836;48.388;16.210;2023-12-29T12:39:23;14.50;99.90
45685;DHT22;46836;48.388;16.210;2023-12-29T12:41:51;14.40;99.90
45685;DHT22;46836;48.388;16.210;2023-12-29T12:44:18;14.40;99.90
45685;DHT22;46836;48.388;16.210;2023-12-29T12:49:14;14.30;99.90
45685;DHT22;46836;48.388;16.210;2023-12-29T12:51:43;14.20;99.90
45685;DHT22;46836;48.388;16.210;2023-12-29T12:54:10;14.20;99.90
45685;DHT22;46836;48.388;16.210;2023-12-29T12:56:44;14.10;99.90
45685;DHT22;46836;48.388;16.210;2023-12-29T12:59:12;14.00;99.90
45685;DHT22;46836;48.388;16.210;2023-12-29T13:01:43;14.00;99.90
45685;DHT22;46836;48.388;16.210;2023-12-29T13:04:16;13.90;99.90
45685;DHT22;46836;48.388;16.210;2023-12-29T13:06:49;13.90;99.90
45685;DHT22;46836;48.388;16.210;2023-12-29T13:09:22;13.90;99.90
45685;DHT22;46836;48.388;16.210;2023-12-29T13:12:13;13.90;99.90
45685;DHT22;46836;48.388;16.210;2023-12-29T13:14:44;13.80;99.90
45685;DHT22;46836;48.388;16.210;2023-12-29T13:17:15;13.70;99.90
45685;DHT22;46836;48.388;16.210;2023-12-29T13:19:56;13.70;99.90
45685;DHT22;46836;48.388;16.210;2023-12-29T13:22:30;13.70;99.90
45685;DHT22;46836;48.388;16.210;2023-12-29T13:25:05;13.60;99.90
45685;DHT22;46836;48.388;16.210;2023-12-29T13:27:39;13.60;99.90
45685;DHT22;46836;48.388;16.210;2023-12-29T13:30:07;13.50;99.90
45685;DHT22;46836;48.388;16.210;2023-12-29T13:32:35;13.50;99.90
45685;DHT22;46836;48.388;16.210;2023-12-29T13:43:22;13.40;99.90
45685;DHT22;46836;48.388;16.210;2023-12-29T13:45:49;13.40;99.90
45685;DHT22;46836;48.388;16.210;2023-12-29T13:48:17;13.30;99.90
45685;DHT22;46836;48.388;16.210;2023-12-29T13:50:48;13.30;99.90
45685;DHT22;46836;48.388;16.210;2023-12-29T13:53:18;13.30;99.90
45685;DHT22;46836;48.388;16.210;2023-12-29T13:55:46;13.30;99.90
45685;DHT22;46836;48.388;16.210;2023-12-29T13:58:13;13.30;99.90
45685;DHT22;46836;48.388;16.210;2023-12-29T14:00:40;13.40;99.90
45685;DHT22;46836;48.388;16.210;2023-12-29T14:03:22;13.40;99.90
45685;DHT22;46836;48.388;16.210;2023-12-29T14:06:00;13.40;99.90
45685;DHT22;46836;48.388;16.210;2023-12-29T14:08:34;13.40;99.90
45685;DHT22;46836;48.388;16.210;2023-12-29T14:11:08;13.40;99.90
45685;DHT22;46836;48.388;16.210;2023-12-29T14:13:44;13.40;99.90
45685;DHT22;46836;48.388;16.210;2023-12-29T14:16:12;13.40;99.90
45685;DHT22;46836;48.388;16.210;2023-12-29T14:21:29;13.40;99.90
45685;DHT22;46836;48.388;16.210;2023-12-29T14:26:35;13.40;99.90
45685;DHT22;46836;48.388;16.210;2023-12-29T14:29:03;13.30;99.90
45685;DHT22;46836;48.388;16.210;2023-12-29T14:31:34;13.30;99.90
45685;DHT22;46836;48.388;16.210;2023-12-29T14:34:03;13.30;99.90
45685;DHT22;46836;48.388;16.210;2023-12-29T14:36:32;13.20;99.90
45685;DHT22;46836;48.388;16.210;2023-12-29T14:38:59;13.20;99.90
45685;DHT22;46836;48.388;16.210;2023-12-29T14:41:27;13.20;99.90
45685;DHT22;46836;48.388;16.210;2023-12-29T14:43:54;13.10;99.90
45685;DHT22;46836;48.388;16.210;2023-12-29T14:46:21;13.10;99.90
45685;DHT22;46836;48.388;16.210;2023-12-29T14:48:51;13.10;99.90
45685;DHT22;46836;48.388;16.210;2023-12-29T14:51:19;13.00;99.90
45685;DHT22;46836;48.388;16.210;2023-12-29T14:53:47;12.90;99.90
45685;DHT22;46836;48.388;16.210;2023-12-29T14:56:15;12.80;99.90
45685;DHT22;46836;48.388;16.210;2023-12-29T14:58:43;12.80;99.90
45685;DHT22;46836;48.388;16.210;2023-12-29T15:01:11;12.70;99.90
45685;DHT22;46836;48.388;16.210;2023-12-29T15:03:38;12.70;99.90
45685;DHT22;46836;48.388;16.210;2023-12-29T15:06:05;12.60;99.90
45685;DHT22;46836;48.388;16.210;2023-12-29T15:08:32;12.50;99.90
45685;DHT22;46836;48.388;16.210;2023-12-29T15:11:05;12.50;99.90
45685;DHT22;46836;48.388;16.210;2023-12-29T15:13:34;12.50;99.90
45685;DHT22;46836;48.388;16.210;2023-12-29T15:16:02;12.50;99.90
45685;DHT22;46836;48.388;16.210;2023-12-29T15:18:31;12.50;99.90
45685;DHT22;46836;48.388;16.210;2023-12-29T15:20:58;12.40;99.90
45685;DHT22;46836;48.388;16.210;2023-12-29T15:23:26;12.40;99.90
45685;DHT22;46836;48.388;16.210;2023-12-29T15:25:55;12.40;99.90
45685;DHT22;46836;48.388;16.210;2023-12-29T15:28:22;12.40;99.90
45685;DHT22;46836;48.388;16.210;2023-12-29T15:30:50;12.40;99.90
45685;DHT22;46836;48.388;16.210;2023-12-29T15:33:18;12.30;99.90
45685;DHT22;46836;48.388;16.210;2023-12-29T15:35:46;12.30;99.90
45685;DHT22;46836;48.388;16.210;2023-12-29T15:38:13;12.30;99.90
45685;DHT22;46836;48.388;16.210;2023-12-29T15:40:41;12.30;99.90
45685;DHT22;46836;48.388;16.210;2023-12-29T15:43:08;12.30;99.90
45685;DHT22;46836;48.388;16.210;2023-12-29T15:45:35;12.30;99.90
45685;DHT22;46836;48.388;16.210;2023-12-29T15:48:03;12.20;99.90
45685;DHT22;46836;48.388;16.210;2023-12-29T15:50:31;12.20;99.90
45685;DHT22;46836;48.388;16.210;2023-12-29T15:52:58;12.20;99.90
45685;DHT22;46836;48.388;16.210;2023-12-29T15:55:26;12.20;99.90
45685;DHT22;46836;48.388;16.210;2023-12-29T15:57:53;12.20;99.90
45685;DHT22;46836;48.388;16.210;2023-12-29T16:00:20;12.20;99.90
45685;DHT22;46836;48.388;16.210;2023-12-29T16:02:47;12.20;99.90
45685;DHT22;46836;48.388;16.210;2023-12-29T16:05:15;12.20;99.90